createdAt,value
2022-10-09T00:00:22.765Z,19.60
2022-10-09T00:03:24.963Z,19.60
2022-10-09T00:06:30.945Z,19.60
2022-10-09T00:09:36.261Z,19.50
2022-10-09T00:12:38.542Z,19.60
2022-10-09T00:15:42.540Z,19.60
2022-10-09T00:18:44.766Z,19.60
2022-10-09T00:21:46.882Z,19.60
2022-10-09T00:24:49.216Z,19.60
2022-10-09T00:27:51.343Z,19.50
2022-10-09T00:30:54.190Z,19.60
2022-10-09T00:33:56.752Z,19.50
2022-10-09T00:36:58.850Z,19.50
2022-10-09T00:40:01.074Z,19.60
2022-10-09T00:43:04.747Z,19.60
2022-10-09T00:46:09.539Z,19.60
2022-10-09T00:49:34.420Z,19.60
2022-10-09T00:52:36.752Z,19.50
2022-10-09T00:55:39.975Z,19.60
2022-10-09T00:58:42.224Z,19.60
2022-10-09T01:01:44.717Z,19.50
2022-10-09T01:04:47.139Z,19.60
2022-10-09T01:08:14.763Z,19.50
2022-10-09T01:11:35.493Z,19.60
2022-10-09T01:14:48.977Z,19.60
2022-10-09T01:18:04.765Z,19.50
2022-10-09T01:21:21.024Z,19.50
2022-10-09T01:24:32.399Z,19.50
2022-10-09T01:27:36.223Z,19.50
2022-10-09T01:30:38.817Z,19.60
2022-10-09T01:33:41.665Z,19.50
2022-10-09T01:36:45.082Z,19.50
2022-10-09T01:39:49.363Z,19.50
2022-10-09T01:42:52.076Z,19.50
2022-10-09T01:46:19.022Z,19.50
2022-10-09T01:49:41.330Z,19.50
2022-10-09T01:53:19.361Z,19.50
2022-10-09T01:56:23.118Z,19.50
2022-10-09T01:59:27.356Z,19.50
2022-10-09T02:02:29.778Z,19.50
2022-10-09T02:05:32.753Z,19.50
2022-10-09T02:08:38.845Z,19.50
2022-10-09T02:11:43.533Z,19.50
2022-10-09T02:14:45.967Z,19.50
2022-10-09T02:17:50.579Z,19.50
2022-10-09T02:20:59.528Z,19.50
2022-10-09T02:24:03.302Z,19.50
2022-10-09T02:27:06.544Z,19.50
2022-10-09T02:30:10.961Z,19.50
2022-10-09T02:33:13.104Z,19.50
2022-10-09T02:36:15.357Z,19.50
2022-10-09T02:39:18.324Z,19.50
2022-10-09T02:42:20.542Z,19.50
2022-10-09T02:45:23.053Z,19.50
2022-10-09T02:48:25.276Z,19.50
2022-10-09T02:51:27.682Z,19.50
2022-10-09T02:54:29.937Z,19.50
2022-10-09T02:57:32.101Z,19.50
2022-10-09T03:00:34.178Z,19.50
2022-10-09T03:03:36.460Z,19.50
2022-10-09T03:06:38.627Z,19.50
2022-10-09T03:09:40.771Z,19.50
2022-10-09T03:12:42.869Z,19.50
2022-10-09T03:15:44.960Z,19.50
2022-10-09T03:18:48.495Z,19.50
2022-10-09T03:21:50.644Z,19.50
2022-10-09T03:24:52.774Z,19.50
2022-10-09T03:27:54.893Z,19.50
2022-10-09T03:30:57.248Z,19.50
2022-10-09T03:33:59.387Z,19.50
2022-10-09T03:37:01.496Z,19.50
2022-10-09T03:40:04.395Z,19.50
2022-10-09T03:43:07.120Z,19.50
2022-10-09T03:46:10.831Z,19.50
2022-10-09T03:49:13.450Z,19.50
2022-10-09T03:52:15.553Z,19.50
2022-10-09T03:55:17.748Z,19.50
2022-10-09T03:58:19.849Z,19.50
2022-10-09T04:01:22.071Z,19.50
2022-10-09T04:04:24.354Z,19.50
2022-10-09T04:07:26.463Z,19.50
2022-10-09T04:10:28.708Z,19.50
2022-10-09T04:13:31.033Z,19.50
2022-10-09T04:16:33.224Z,19.50
2022-10-09T04:19:36.385Z,19.50
2022-10-09T04:22:38.718Z,19.50
2022-10-09T04:25:40.899Z,19.50
2022-10-09T04:28:43.745Z,19.50
2022-10-09T04:31:46.210Z,19.50
2022-10-09T04:34:48.448Z,19.50
2022-10-09T04:37:50.703Z,19.50
2022-10-09T04:41:00.829Z,19.50
2022-10-09T04:44:02.802Z,19.50
2022-10-09T04:47:08.132Z,19.50
2022-10-09T04:50:12.685Z,19.50
2022-10-09T04:53:15.217Z,19.50
2022-10-09T04:56:20.235Z,19.50
2022-10-09T04:59:22.404Z,19.40
2022-10-09T05:02:24.628Z,19.40
2022-10-09T05:05:26.829Z,19.50
2022-10-09T05:08:30.428Z,19.50
2022-10-09T05:11:32.620Z,19.50
2022-10-09T05:14:34.749Z,19.50
2022-10-09T05:17:36.922Z,19.50
2022-10-09T05:20:42.393Z,19.40
2022-10-09T05:23:45.373Z,19.40
2022-10-09T05:26:47.585Z,19.50
2022-10-09T05:29:49.806Z,19.40
2022-10-09T05:32:52.199Z,19.40
2022-10-09T05:35:59.750Z,19.50
2022-10-09T05:39:02.172Z,19.50
2022-10-09T05:42:04.896Z,19.50
2022-10-09T05:45:08.615Z,19.40
2022-10-09T05:48:10.735Z,19.40
2022-10-09T05:51:16.862Z,19.50
2022-10-09T05:54:19.011Z,19.50
2022-10-09T05:57:21.172Z,19.50
2022-10-09T06:00:23.249Z,19.50
2022-10-09T06:03:25.446Z,19.50
2022-10-09T06:06:30.727Z,19.50
2022-10-09T06:09:32.914Z,19.50
2022-10-09T06:12:35.607Z,19.50
2022-10-09T06:15:37.729Z,19.50
2022-10-09T06:18:49.121Z,19.50
2022-10-09T06:21:52.017Z,19.50
2022-10-09T06:24:54.190Z,19.50
2022-10-09T06:27:56.357Z,19.50
2022-10-09T06:31:16.044Z,19.50
2022-10-09T06:34:18.397Z,19.40
2022-10-09T06:37:20.613Z,19.40
2022-10-09T06:40:22.836Z,19.40
2022-10-09T06:43:25.049Z,19.50
2022-10-09T06:46:30.987Z,19.40
2022-10-09T06:49:33.384Z,19.50
2022-10-09T06:52:35.461Z,19.40
2022-10-09T06:55:37.576Z,19.40
2022-10-09T06:58:40.608Z,19.50
2022-10-09T07:01:42.907Z,19.50
2022-10-09T07:04:46.973Z,19.50
2022-10-09T07:07:49.124Z,19.50
2022-10-09T07:10:51.294Z,19.40
2022-10-09T07:13:56.334Z,19.50
2022-10-09T07:16:58.531Z,19.50
2022-10-09T07:20:00.701Z,19.50
2022-10-09T07:23:03.327Z,19.40
2022-10-09T07:26:17.411Z,19.40
2022-10-09T07:29:20.133Z,19.40
2022-10-09T07:32:22.368Z,19.40
2022-10-09T07:35:24.638Z,19.50
2022-10-09T07:38:27.580Z,19.40
2022-10-09T07:41:30.046Z,19.50
2022-10-09T07:44:32.328Z,19.50
2022-10-09T07:47:34.470Z,19.40
2022-10-09T07:50:36.894Z,19.50
2022-10-09T07:53:39.329Z,19.40
2022-10-09T07:56:41.480Z,19.40
2022-10-09T07:59:43.635Z,19.40
2022-10-09T08:02:46.091Z,19.40
2022-10-09T08:05:55.907Z,19.40
2022-10-09T08:09:00.287Z,19.50
2022-10-09T08:12:02.367Z,19.40
2022-10-09T08:15:04.931Z,19.40
2022-10-09T08:18:06.984Z,19.40
2022-10-09T08:21:13.095Z,19.40
2022-10-09T08:24:15.246Z,19.40
2022-10-09T08:27:17.404Z,19.40
2022-10-09T08:30:19.739Z,19.40
2022-10-09T08:33:25.009Z,19.40
2022-10-09T08:36:28.005Z,19.40
2022-10-09T08:39:31.244Z,19.40
2022-10-09T08:42:51.711Z,19.40
2022-10-09T08:45:55.036Z,19.40
2022-10-09T08:48:58.534Z,19.40
2022-10-09T08:52:28.011Z,19.40
2022-10-09T08:55:37.007Z,19.40
2022-10-09T08:58:41.413Z,19.40
2022-10-09T09:01:58.172Z,19.40
2022-10-09T09:05:29.661Z,19.40
2022-10-09T09:08:38.174Z,19.40
2022-10-09T09:12:06.731Z,19.40
2022-10-09T09:15:14.711Z,19.40
2022-10-09T09:18:26.972Z,19.40
2022-10-09T09:21:41.095Z,19.40
2022-10-09T09:24:53.495Z,19.40
2022-10-09T09:28:00.065Z,19.40
2022-10-09T09:31:14.270Z,19.40
2022-10-09T09:34:40.511Z,19.40
2022-10-09T09:37:42.768Z,19.40
2022-10-09T09:40:47.197Z,19.40
2022-10-09T09:43:49.918Z,19.40
2022-10-09T09:46:53.067Z,19.40
2022-10-09T09:50:01.059Z,19.40
2022-10-09T09:53:13.135Z,19.40
2022-10-09T09:56:16.623Z,19.40
2022-10-09T09:59:43.324Z,19.40
2022-10-09T10:02:45.594Z,19.40
2022-10-09T10:05:48.267Z,19.40
2022-10-09T10:09:00.482Z,19.50
2022-10-09T10:12:04.078Z,19.50
2022-10-09T10:15:06.639Z,19.50
2022-10-09T10:18:16.205Z,19.50
2022-10-09T10:21:20.209Z,19.50
2022-10-09T10:24:31.848Z,19.50
2022-10-09T10:27:42.697Z,19.50
2022-10-09T10:30:45.737Z,19.50
2022-10-09T10:33:54.918Z,19.50
2022-10-09T10:37:07.300Z,19.60
2022-10-09T10:40:18.119Z,19.60
2022-10-09T10:43:23.392Z,19.60
2022-10-09T10:46:52.539Z,19.60
2022-10-09T10:49:54.844Z,19.60
2022-10-09T10:53:38.084Z,19.60
2022-10-09T10:57:01.405Z,19.60
2022-10-09T11:00:09.859Z,19.60
2022-10-09T11:03:17.890Z,19.70
2022-10-09T11:06:23.106Z,19.70
2022-10-09T11:09:35.147Z,19.70
2022-10-09T11:12:48.733Z,19.70
2022-10-09T11:16:28.410Z,19.80
2022-10-09T11:19:45.395Z,19.80
2022-10-09T11:23:06.018Z,19.80
2022-10-09T11:26:25.298Z,19.80
2022-10-09T11:29:37.358Z,19.90
2022-10-09T11:32:52.647Z,19.90
2022-10-09T11:36:16.844Z,19.90
2022-10-09T11:39:26.008Z,19.90
2022-10-09T11:42:29.422Z,19.90
2022-10-09T11:45:51.462Z,19.90
2022-10-09T11:48:59.423Z,19.90
2022-10-09T11:52:15.901Z,19.90
2022-10-09T11:55:24.927Z,19.90
2022-10-09T11:58:27.077Z,19.90
2022-10-09T12:01:37.119Z,19.90
2022-10-09T12:04:55.667Z,20.00
2022-10-09T12:08:08.539Z,20.00
2022-10-09T12:11:17.043Z,20.00
2022-10-09T12:14:25.657Z,20.00
2022-10-09T12:17:27.919Z,20.00
2022-10-09T12:20:30.657Z,20.00
2022-10-09T12:23:36.048Z,20.00
2022-10-09T12:26:40.269Z,20.00
2022-10-09T12:29:47.977Z,20.00
2022-10-09T12:32:55.413Z,20.00
2022-10-09T12:36:12.450Z,20.00
2022-10-09T12:39:23.745Z,20.00
2022-10-09T12:42:27.076Z,20.00
2022-10-09T12:45:31.850Z,20.00
2022-10-09T12:48:39.588Z,20.00
2022-10-09T12:51:41.804Z,20.10
2022-10-09T12:54:45.277Z,20.10
2022-10-09T12:57:47.782Z,20.10
2022-10-09T13:01:14.713Z,20.10
2022-10-09T13:04:33.054Z,20.10
2022-10-09T13:07:35.470Z,20.10
2022-10-09T13:10:37.666Z,20.10
2022-10-09T13:13:52.148Z,20.10
2022-10-09T13:16:55.000Z,20.10
2022-10-09T13:20:00.610Z,20.20
2022-10-09T13:23:05.812Z,20.20
2022-10-09T13:26:13.758Z,20.20
2022-10-09T13:29:15.918Z,20.20
2022-10-09T13:32:18.594Z,20.20
2022-10-09T13:35:20.895Z,20.20
2022-10-09T13:38:24.087Z,20.20
2022-10-09T13:41:26.303Z,20.10
2022-10-09T13:44:28.480Z,20.20
2022-10-09T13:47:30.792Z,20.20
2022-10-09T13:50:33.006Z,20.20
2022-10-09T13:53:35.475Z,20.20
2022-10-09T13:56:37.660Z,20.20
2022-10-09T13:59:39.895Z,20.20
2022-10-09T14:02:42.201Z,20.20
2022-10-09T14:05:45.148Z,20.20
2022-10-09T14:08:47.411Z,20.20
2022-10-09T14:11:49.581Z,20.20
2022-10-09T14:14:53.525Z,20.20
2022-10-09T14:17:55.692Z,20.20
2022-10-09T14:20:57.844Z,20.20
2022-10-09T14:24:02.815Z,20.20
2022-10-09T14:27:06.447Z,20.20
2022-10-09T14:30:09.406Z,20.10
2022-10-09T14:33:12.922Z,20.10
2022-10-09T14:36:19.175Z,20.10
2022-10-09T14:39:21.384Z,20.10
2022-10-09T14:42:23.522Z,20.10
2022-10-09T14:45:25.673Z,20.10
2022-10-09T14:48:27.794Z,20.20
2022-10-09T14:51:36.014Z,20.10
2022-10-09T14:54:38.898Z,20.10
2022-10-09T14:57:41.108Z,20.20
2022-10-09T15:00:47.612Z,20.20
2022-10-09T15:03:55.859Z,20.20
2022-10-09T15:06:58.099Z,20.20
2022-10-09T15:10:00.321Z,20.20
2022-10-09T15:13:02.455Z,20.20
2022-10-09T15:16:08.145Z,20.20
2022-10-09T15:19:13.960Z,20.20
2022-10-09T15:22:16.156Z,20.20
2022-10-09T15:25:18.315Z,20.20
2022-10-09T15:28:21.008Z,20.20
2022-10-09T15:31:37.252Z,20.20
2022-10-09T15:34:41.226Z,20.20
2022-10-09T15:40:54.365Z,20.20
2022-10-09T15:43:59.408Z,20.20
2022-10-09T15:47:01.561Z,20.20
2022-10-09T15:50:04.147Z,20.20
2022-10-09T15:53:11.087Z,20.20
2022-10-09T15:56:16.319Z,20.20
2022-10-09T15:59:25.842Z,20.20
2022-10-09T16:02:27.956Z,20.20
2022-10-09T16:05:30.303Z,20.20
2022-10-09T16:08:32.790Z,20.20
2022-10-09T16:11:34.987Z,20.20
2022-10-09T16:14:38.426Z,20.20
2022-10-09T16:17:40.618Z,20.20
2022-10-09T16:20:43.199Z,20.20
2022-10-09T16:23:46.153Z,20.20
2022-10-09T16:26:50.985Z,20.20
2022-10-09T16:29:53.078Z,20.20
2022-10-09T16:32:55.334Z,20.20
2022-10-09T16:36:11.363Z,20.20
2022-10-09T16:39:13.479Z,20.20
2022-10-09T16:42:16.872Z,20.20
2022-10-09T16:45:19.078Z,20.20
2022-10-09T16:48:21.387Z,20.20
2022-10-09T16:51:29.568Z,20.20
2022-10-09T16:54:31.757Z,20.30
2022-10-09T16:57:33.962Z,20.30
2022-10-09T17:00:36.194Z,20.30
2022-10-09T17:03:42.519Z,20.30
2022-10-09T17:06:45.726Z,20.40
2022-10-09T17:09:47.830Z,20.40
2022-10-09T17:12:50.200Z,20.40
2022-10-09T17:15:53.003Z,20.40
2022-10-09T17:18:55.595Z,20.40
2022-10-09T17:21:57.732Z,20.40
2022-10-09T17:24:59.948Z,20.50
2022-10-09T17:28:07.712Z,20.50
2022-10-09T17:31:14.331Z,20.50
2022-10-09T17:34:16.881Z,20.50
2022-10-09T17:37:18.991Z,20.50
2022-10-09T17:40:21.096Z,20.40
2022-10-09T17:43:23.207Z,20.50
2022-10-09T17:46:28.208Z,20.50
2022-10-09T17:49:30.382Z,20.50
2022-10-09T17:52:32.562Z,20.50
2022-10-09T17:55:38.628Z,20.50
2022-10-09T17:58:41.081Z,20.50
2022-10-09T18:01:43.396Z,20.50
2022-10-09T18:04:45.631Z,20.50
2022-10-09T18:07:48.167Z,20.50
2022-10-09T18:11:02.263Z,20.50
2022-10-09T18:14:04.479Z,20.50
2022-10-09T18:17:07.803Z,20.50
2022-10-09T18:20:11.213Z,20.50
2022-10-09T18:23:13.835Z,20.50
2022-10-09T18:26:19.566Z,20.50
2022-10-09T18:29:21.698Z,20.50
2022-10-09T18:32:23.794Z,20.50
2022-10-09T18:35:26.801Z,20.40
2022-10-09T18:38:28.918Z,20.50
2022-10-09T18:41:31.110Z,20.50
2022-10-09T18:44:40.202Z,20.50
2022-10-09T18:47:42.725Z,20.50
2022-10-09T18:50:45.297Z,20.50
2022-10-09T18:53:55.980Z,20.50
2022-10-09T18:56:58.371Z,20.50
2022-10-09T19:00:01.869Z,20.50
2022-10-09T19:03:04.333Z,20.50
2022-10-09T19:06:06.854Z,20.50
2022-10-09T19:09:08.961Z,20.50
2022-10-09T19:12:11.140Z,20.50
2022-10-09T19:15:13.233Z,20.50
2022-10-09T19:18:15.588Z,20.50
2022-10-09T19:21:17.642Z,20.50
2022-10-09T19:24:19.757Z,20.40
2022-10-09T19:27:26.344Z,20.40
2022-10-09T19:30:28.799Z,20.40
2022-10-09T19:33:31.232Z,20.50
2022-10-09T19:36:36.647Z,20.40
2022-10-09T19:39:38.926Z,20.50
2022-10-09T19:42:41.030Z,20.50
2022-10-09T19:45:43.462Z,20.50
2022-10-09T19:48:45.975Z,20.50
2022-10-09T19:51:49.438Z,20.50
2022-10-09T19:54:51.743Z,20.50
2022-10-09T19:57:53.872Z,20.50
2022-10-09T20:00:56.070Z,20.50
2022-10-09T20:04:00.859Z,20.40
2022-10-09T20:07:03.042Z,20.50
2022-10-09T20:10:05.551Z,20.40
2022-10-09T20:13:07.729Z,20.40
2022-10-09T20:16:12.973Z,20.50
2022-10-09T20:19:15.104Z,20.50
2022-10-09T20:22:17.457Z,20.50
2022-10-09T20:25:20.110Z,20.40
2022-10-09T20:28:22.498Z,20.50
2022-10-09T20:31:26.383Z,20.50
2022-10-09T20:34:28.595Z,20.50
2022-10-09T20:37:31.773Z,20.40
2022-10-09T20:40:34.288Z,20.40
2022-10-09T20:43:36.775Z,20.50
2022-10-09T20:46:40.178Z,20.40
2022-10-09T20:49:43.734Z,20.40
2022-10-09T20:52:45.948Z,20.40
2022-10-09T20:55:48.092Z,20.40
2022-10-09T20:58:50.370Z,20.40
2022-10-09T21:01:52.535Z,20.40
2022-10-09T21:05:00.879Z,20.40
2022-10-09T21:08:04.031Z,20.50
2022-10-09T21:11:08.872Z,20.40
2022-10-09T21:14:14.445Z,20.40
2022-10-09T21:17:16.625Z,20.40
2022-10-09T21:20:18.804Z,20.40
2022-10-09T21:23:20.945Z,20.40
2022-10-09T21:26:24.416Z,20.40
2022-10-09T21:29:27.201Z,20.40
2022-10-09T21:32:29.536Z,20.40
2022-10-09T21:35:31.731Z,20.40
2022-10-09T21:38:33.964Z,20.40
2022-10-09T21:41:37.244Z,20.40
2022-10-09T21:44:39.440Z,20.40
2022-10-09T21:47:56.259Z,20.40
2022-10-09T21:50:58.514Z,20.40
2022-10-09T21:54:00.655Z,20.40
2022-10-09T21:57:02.960Z,20.40
2022-10-09T22:00:06.271Z,20.40
2022-10-09T22:03:09.167Z,20.40
2022-10-09T22:06:18.444Z,20.40
2022-10-09T22:09:21.687Z,20.40
2022-10-09T22:12:23.912Z,20.40
2022-10-09T22:15:26.049Z,20.40
2022-10-09T22:18:28.161Z,20.40
2022-10-09T22:21:30.484Z,20.40
2022-10-09T22:24:32.623Z,20.40
2022-10-09T22:27:34.913Z,20.40
2022-10-09T22:30:37.086Z,20.40
2022-10-09T22:33:39.611Z,20.40
2022-10-09T22:36:42.053Z,20.30
2022-10-09T22:39:45.291Z,20.40
2022-10-09T22:42:47.752Z,20.40
2022-10-09T22:45:50.177Z,20.40
2022-10-09T22:48:53.102Z,20.30
2022-10-09T22:51:55.321Z,20.40
2022-10-09T22:54:57.524Z,20.40
2022-10-09T22:57:59.740Z,20.30
2022-10-09T23:01:08.884Z,20.40
2022-10-09T23:04:13.713Z,20.40
2022-10-09T23:07:15.856Z,20.40
2022-10-09T23:10:18.125Z,20.40
2022-10-09T23:13:21.774Z,20.30
2022-10-09T23:16:25.171Z,20.30
2022-10-09T23:19:27.363Z,20.30
2022-10-09T23:22:29.532Z,20.30
2022-10-09T23:25:31.750Z,20.30
2022-10-09T23:28:35.085Z,20.30
2022-10-09T23:31:38.357Z,20.30
2022-10-09T23:34:41.568Z,20.30
2022-10-09T23:37:43.686Z,20.30
2022-10-09T23:40:55.623Z,20.30
2022-10-09T23:43:57.886Z,20.30
2022-10-09T23:47:00.020Z,20.30
2022-10-09T23:50:02.299Z,20.30
2022-10-09T23:53:04.415Z,20.30
2022-10-09T23:56:25.372Z,20.30
2022-10-09T23:59:27.603Z,20.30
